sensor_id;sensor_type;location;lat;lon;timestamp;temperature;humidity
32107;DHT22;18622;51.998;10.440;2022-12-18T06:02:49;-8.00;99.90
32107;DHT22;18622;51.998;10.440;2022-12-18T06:05:16;-8.10;99.90
32107;DHT22;18622;51.998;10.440;2022-12-18T06:07:44;-8.10;99.90
32107;DHT22;18622;51.998;10.440;2022-12-18T06:10:12;-8.10;99.90
32107;DHT22;18622;51.998;10.440;2022-12-18T06:25:07;-8.10;99.90
32107;DHT22;18622;51.998;10.440;2022-12-18T06:32:33;-8.10;99.90
32107;DHT22;18622;51.998;10.440;2022-12-18T06:39:58;-8.20;99.90
32107;DHT22;18622;51.998;10.440;2022-12-18T06:47:25;-8.20;99.90
32107;DHT22;18622;51.998;10.440;2022-12-18T06:52:21;-8.20;99.90
32107;DHT22;18622;51.998;10.440;2022-12-18T07:07:14;-8.40;99.90
32107;DHT22;18622;51.998;10.440;2022-12-18T07:17:08;-8.50;99.90
32107;DHT22;18622;51.998;10.440;2022-12-18T07:27:05;-8.40;99.90
32107;DHT22;18622;51.998;10.440;2022-12-18T07:39:27;-8.50;99.90
32107;DHT22;18622;51.998;10.440;2022-12-18T07:51:56;-8.50;99.90
32107;DHT22;18622;51.998;10.440;2022-12-18T07:56:53;-8.40;99.90
32107;DHT22;18622;51.998;10.440;2022-12-18T08:01:51;-8.40;99.90
32107;DHT22;18622;51.998;10.440;2022-12-18T08:09:16;-8.10;99.90
32107;DHT22;18622;51.998;10.440;2022-12-18T08:11:44;-8.10;99.90
32107;DHT22;18622;51.998;10.440;2022-12-18T08:24:09;-7.70;99.90
32107;DHT22;18622;51.998;10.440;2022-12-18T08:26:41;-7.70;99.90
32107;DHT22;18622;51.998;10.440;2022-12-18T08:29:09;-7.60;99.90
32107;DHT22;18622;51.998;10.440;2022-12-18T08:36:34;-7.40;99.90
32107;DHT22;18622;51.998;10.440;2022-12-18T08:41:31;-7.30;99.90
32107;DHT22;18622;51.998;10.440;2022-12-18T08:43:59;-7.20;99.90
32107;DHT22;18622;51.998;10.440;2022-12-18T08:46:44;-7.10;99.90
32107;DHT22;18622;51.998;10.440;2022-12-18T08:49:12;-7.00;99.90
32107;DHT22;18622;51.998;10.440;2022-12-18T08:59:07;-6.60;99.90
32107;DHT22;18622;51.998;10.440;2022-12-18T09:01:35;-6.50;99.90
32107;DHT22;18622;51.998;10.440;2022-12-18T09:06:32;-6.20;99.90
32107;DHT22;18622;51.998;10.440;2022-12-18T09:09:00;-6.00;99.90
32107;DHT22;18622;51.998;10.440;2022-12-18T09:13:57;-5.70;99.90
32107;DHT22;18622;51.998;10.440;2022-12-18T09:16:26;-5.60;99.90
32107;DHT22;18622;51.998;10.440;2022-12-18T09:18:57;-5.50;99.80
32107;DHT22;18622;51.998;10.440;2022-12-18T09:21:30;-5.30;99.80
32107;DHT22;18622;51.998;10.440;2022-12-18T09:23:58;-5.10;99.80
32107;DHT22;18622;51.998;10.440;2022-12-18T09:26:26;-4.80;99.80
32107;DHT22;18622;51.998;10.440;2022-12-18T09:28:54;-4.60;99.70
32107;DHT22;18622;51.998;10.440;2022-12-18T09:31:24;-4.30;99.50
32107;DHT22;18622;51.998;10.440;2022-12-18T09:33:52;-3.90;99.30
32107;DHT22;18622;51.998;10.440;2022-12-18T09:36:19;-3.50;99.10
32107;DHT22;18622;51.998;10.440;2022-12-18T09:38:47;-3.30;98.70
32107;DHT22;18622;51.998;10.440;2022-12-18T09:44:04;-3.30;98.30
32107;DHT22;18622;51.998;10.440;2022-12-18T09:46:34;-3.20;98.60
32107;DHT22;18622;51.998;10.440;2022-12-18T09:49:05;-2.90;98.60
32107;DHT22;18622;51.998;10.440;2022-12-18T09:51:38;-2.50;98.80
32107;DHT22;18622;51.998;10.440;2022-12-18T09:54:16;-2.20;98.50
32107;DHT22;18622;51.998;10.440;2022-12-18T09:56:42;-1.90;98.10
32107;DHT22;18622;51.998;10.440;2022-12-18T09:59:21;-1.70;97.70
32107;DHT22;18622;51.998;10.440;2022-12-18T10:01:40;-1.60;97.30
32107;DHT22;18622;51.998;10.440;2022-12-18T10:04:09;-1.70;97.20
32107;DHT22;18622;51.998;10.440;2022-12-18T10:07:03;-1.40;97.20
32107;DHT22;18622;51.998;10.440;2022-12-18T10:09:43;-0.70;97.30
32107;DHT22;18622;51.998;10.440;2022-12-18T10:12:32;0.30;96.50
32107;DHT22;18622;51.998;10.440;2022-12-18T10:15:06;1.20;95.80
32107;DHT22;18622;51.998;10.440;2022-12-18T10:17:44;2.10;93.70
32107;DHT22;18622;51.998;10.440;2022-12-18T10:20:59;2.90;92.80
32107;DHT22;18622;51.998;10.440;2022-12-18T10:22:57;3.40;91.10
32107;DHT22;18622;51.998;10.440;2022-12-18T10:25:28;3.90;89.60
32107;DHT22;18622;51.998;10.440;2022-12-18T10:27:58;4.40;86.30
32107;DHT22;18622;51.998;10.440;2022-12-18T10:30:27;4.40;82.60
32107;DHT22;18622;51.998;10.440;2022-12-18T10:33:00;4.20;81.40
32107;DHT22;18622;51.998;10.440;2022-12-18T10:35:43;4.00;81.30
32107;DHT22;18622;51.998;10.440;2022-12-18T10:40:56;4.00;78.40
32107;DHT22;18622;51.998;10.440;2022-12-18T10:43:28;4.00;73.30
32107;DHT22;18622;51.998;10.440;2022-12-18T10:48:22;4.70;76.30
32107;DHT22;18622;51.998;10.440;2022-12-18T10:53:27;6.00;71.10
32107;DHT22;18622;51.998;10.440;2022-12-18T10:55:58;6.50;70.90
32107;DHT22;18622;51.998;10.440;2022-12-18T10:58:37;6.80;67.50
32107;DHT22;18622;51.998;10.440;2022-12-18T11:01:11;6.80;63.30
32107;DHT22;18622;51.998;10.440;2022-12-18T11:04:04;6.60;64.60
32107;DHT22;18622;51.998;10.440;2022-12-18T11:06:20;6.50;65.10
32107;DHT22;18622;51.998;10.440;2022-12-18T11:09:00;6.40;65.30
32107;DHT22;18622;51.998;10.440;2022-12-18T11:11:32;6.50;65.30
32107;DHT22;18622;51.998;10.440;2022-12-18T11:14:04;6.70;65.50
32107;DHT22;18622;51.998;10.440;2022-12-18T11:16:42;7.10;63.70
32107;DHT22;18622;51.998;10.440;2022-12-18T11:22:02;7.10;62.50
32107;DHT22;18622;51.998;10.440;2022-12-18T11:24:49;7.10;62.30
32107;DHT22;18622;51.998;10.440;2022-12-18T11:27:17;7.10;61.90
32107;DHT22;18622;51.998;10.440;2022-12-18T11:29:45;7.20;62.20
32107;DHT22;18622;51.998;10.440;2022-12-18T11:32:34;7.60;61.10
32107;DHT22;18622;51.998;10.440;2022-12-18T11:35:11;7.60;59.10
32107;DHT22;18622;51.998;10.440;2022-12-18T11:37:46;7.00;59.70
32107;DHT22;18622;51.998;10.440;2022-12-18T11:40:18;6.60;61.40
32107;DHT22;18622;51.998;10.440;2022-12-18T11:45:47;7.20;60.70
32107;DHT22;18622;51.998;10.440;2022-12-18T11:51:09;6.80;59.20
32107;DHT22;18622;51.998;10.440;2022-12-18T12:26:36;9.60;52.20
32107;DHT22;18622;51.998;10.440;2022-12-18T12:34:23;8.80;53.10
32107;DHT22;18622;51.998;10.440;2022-12-18T12:42:02;6.70;56.10
32107;DHT22;18622;51.998;10.440;2022-12-18T12:47:30;5.50;58.80
32107;DHT22;18622;51.998;10.440;2022-12-18T12:49:59;5.00;60.00
32107;DHT22;18622;51.998;10.440;2022-12-18T12:52:37;4.70;61.30
32107;DHT22;18622;51.998;10.440;2022-12-18T12:55:07;4.50;61.40
32107;DHT22;18622;51.998;10.440;2022-12-18T12:57:55;4.30;61.70
32107;DHT22;18622;51.998;10.440;2022-12-18T13:00:20;4.10;61.80
32107;DHT22;18622;51.998;10.440;2022-12-18T13:03:12;3.90;62.20
32107;DHT22;18622;51.998;10.440;2022-12-18T13:08:27;3.20;63.90
32107;DHT22;18622;51.998;10.440;2022-12-18T13:28:51;1.10;69.90
32107;DHT22;18622;51.998;10.440;2022-12-18T13:41:22;0.70;73.00
32107;DHT22;18622;51.998;10.440;2022-12-18T13:48:56;0.30;74.10
32107;DHT22;18622;51.998;10.440;2022-12-18T14:01:22;0.10;77.00
32107;DHT22;18622;51.998;10.440;2022-12-18T14:16:16;-0.10;79.10
32107;DHT22;18622;51.998;10.440;2022-12-18T14:26:22;-0.30;80.20
32107;DHT22;18622;51.998;10.440;2022-12-18T14:41:15;-0.90;82.10
32107;DHT22;18622;51.998;10.440;2022-12-18T15:16:22;-1.80;87.10
32107;DHT22;18622;51.998;10.440;2022-12-18T15:26:20;-1.80;88.60
32107;DHT22;18622;51.998;10.440;2022-12-18T15:43:52;-1.90;91.10
32107;DHT22;18622;51.998;10.440;2022-12-18T15:48:52;-1.90;91.60
32107;DHT22;18622;51.998;10.440;2022-12-18T15:58:48;-2.00;92.50
32107;DHT22;18622;51.998;10.440;2022-12-18T16:13:42;-2.10;92.80
32107;DHT22;18622;51.998;10.440;2022-12-18T16:21:09;-2.20;93.30
32107;DHT22;18622;51.998;10.440;2022-12-18T16:23:36;-2.20;93.60
32107;DHT22;18622;51.998;10.440;2022-12-18T16:26:11;-2.20;93.80
32107;DHT22;18622;51.998;10.440;2022-12-18T16:36:08;-2.10;94.50
32107;DHT22;18622;51.998;10.440;2022-12-18T16:46:03;-1.90;95.30
32107;DHT22;18622;51.998;10.440;2022-12-18T16:55:59;-1.80;96.10
32107;DHT22;18622;51.998;10.440;2022-12-18T17:10:54;-1.80;96.50
32107;DHT22;18622;51.998;10.440;2022-12-18T17:20:51;-1.80;96.80
32107;DHT22;18622;51.998;10.440;2022-12-18T17:23:18;-1.80;96.80
32107;DHT22;18622;51.998;10.440;2022-12-18T17:25:57;-1.80;96.90
32107;DHT22;18622;51.998;10.440;2022-12-18T17:28:23;-1.80;97.00
32107;DHT22;18622;51.998;10.440;2022-12-18T17:35:49;-1.80;97.30
32107;DHT22;18622;51.998;10.440;2022-12-18T17:40:46;-1.70;97.50
32107;DHT22;18622;51.998;10.440;2022-12-18T17:53:14;-1.60;97.50
32107;DHT22;18622;51.998;10.440;2022-12-18T18:18:04;-1.50;97.80
32107;DHT22;18622;51.998;10.440;2022-12-18T18:20:31;-1.50;97.80
32107;DHT22;18622;51.998;10.440;2022-12-18T18:22:59;-1.40;97.90
32107;DHT22;18622;51.998;10.440;2022-12-18T18:25:27;-1.40;97.90
32107;DHT22;18622;51.998;10.440;2022-12-18T18:27:55;-1.40;97.90
32107;DHT22;18622;51.998;10.440;2022-12-18T18:30:23;-1.40;97.80
32107;DHT22;18622;51.998;10.440;2022-12-18T18:32:50;-1.40;97.70
32107;DHT22;18622;51.998;10.440;2022-12-18T18:35:18;-1.40;97.80
32107;DHT22;18622;51.998;10.440;2022-12-18T18:37:49;-1.40;98.00
32107;DHT22;18622;51.998;10.440;2022-12-18T18:40:16;-1.30;98.10
32107;DHT22;18622;51.998;10.440;2022-12-18T18:42:44;-1.30;98.20
32107;DHT22;18622;51.998;10.440;2022-12-18T18:45:12;-1.30;98.10
32107;DHT22;18622;51.998;10.440;2022-12-18T18:47:40;-1.30;98.20
32107;DHT22;18622;51.998;10.440;2022-12-18T18:50:08;-1.30;98.20
32107;DHT22;18622;51.998;10.440;2022-12-18T18:52:37;-1.30;98.00
32107;DHT22;18622;51.998;10.440;2022-12-18T18:55:05;-1.30;98.10
32107;DHT22;18622;51.998;10.440;2022-12-18T18:57:33;-1.20;98.20
32107;DHT22;18622;51.998;10.440;2022-12-18T19:00:01;-1.20;98.30
32107;DHT22;18622;51.998;10.440;2022-12-18T19:02:34;-1.20;98.30
32107;DHT22;18622;51.998;10.440;2022-12-18T19:04:58;-1.10;98.30
32107;DHT22;18622;51.998;10.440;2022-12-18T19:07:26;-1.10;98.30
32107;DHT22;18622;51.998;10.440;2022-12-18T19:09:54;-1.00;98.20
32107;DHT22;18622;51.998;10.440;2022-12-18T19:12:22;-1.00;98.20
32107;DHT22;18622;51.998;10.440;2022-12-18T19:15:08;-1.00;98.20
32107;DHT22;18622;51.998;10.440;2022-12-18T19:17:36;-1.00;98.20
32107;DHT22;18622;51.998;10.440;2022-12-18T19:20:05;-1.00;98.20
32107;DHT22;18622;51.998;10.440;2022-12-18T19:22:32;-0.90;98.20
32107;DHT22;18622;51.998;10.440;2022-12-18T19:25:00;-0.90;98.10
32107;DHT22;18622;51.998;10.440;2022-12-18T19:27:28;-0.90;98.10
32107;DHT22;18622;51.998;10.440;2022-12-18T19:29:56;-0.90;98.00
32107;DHT22;18622;51.998;10.440;2022-12-18T19:32:24;-0.90;98.10
32107;DHT22;18622;51.998;10.440;2022-12-18T19:34:52;-0.90;98.10
32107;DHT22;18622;51.998;10.440;2022-12-18T19:37:20;-0.90;98.10
32107;DHT22;18622;51.998;10.440;2022-12-18T19:39:48;-0.90;97.80
32107;DHT22;18622;51.998;10.440;2022-12-18T19:42:16;-0.80;97.90
32107;DHT22;18622;51.998;10.440;2022-12-18T19:44:45;-0.80;97.90
32107;DHT22;18622;51.998;10.440;2022-12-18T19:47:12;-0.80;97.70
32107;DHT22;18622;51.998;10.440;2022-12-18T19:49:40;-0.70;97.70
32107;DHT22;18622;51.998;10.440;2022-12-18T19:52:08;-0.70;97.70
32107;DHT22;18622;51.998;10.440;2022-12-18T19:54:36;-0.70;97.40
32107;DHT22;18622;51.998;10.440;2022-12-18T19:57:04;-0.60;97.50
32107;DHT22;18622;51.998;10.440;2022-12-18T19:59:33;-0.60;97.60
32107;DHT22;18622;51.998;10.440;2022-12-18T20:02:02;-0.60;97.60
32107;DHT22;18622;51.998;10.440;2022-12-18T20:04:30;-0.60;97.70
32107;DHT22;18622;51.998;10.440;2022-12-18T20:06:57;-0.70;97.60
32107;DHT22;18622;51.998;10.440;2022-12-18T20:09:25;-0.70;97.60
32107;DHT22;18622;51.998;10.440;2022-12-18T20:11:53;-0.70;97.50
32107;DHT22;18622;51.998;10.440;2022-12-18T20:14:21;-0.70;97.40
32107;DHT22;18622;51.998;10.440;2022-12-18T20:16:49;-0.70;97.50
32107;DHT22;18622;51.998;10.440;2022-12-18T20:19:17;-0.70;97.50
32107;DHT22;18622;51.998;10.440;2022-12-18T20:21:45;-0.70;97.60
32107;DHT22;18622;51.998;10.440;2022-12-18T20:24:13;-0.70;97.70
32107;DHT22;18622;51.998;10.440;2022-12-18T20:26:40;-0.60;97.60
32107;DHT22;18622;51.998;10.440;2022-12-18T20:29:08;-0.60;97.50
32107;DHT22;18622;51.998;10.440;2022-12-18T20:31:36;-0.70;97.40
32107;DHT22;18622;51.998;10.440;2022-12-18T20:34:06;-0.60;97.40
32107;DHT22;18622;51.998;10.440;2022-12-18T20:36:34;-0.70;97.30
32107;DHT22;18622;51.998;10.440;2022-12-18T20:39:03;-0.70;97.30
32107;DHT22;18622;51.998;10.440;2022-12-18T20:41:31;-0.80;97.50
32107;DHT22;18622;51.998;10.440;2022-12-18T20:43:59;-0.80;97.60
32107;DHT22;18622;51.998;10.440;2022-12-18T20:46:27;-0.70;97.60
32107;DHT22;18622;51.998;10.440;2022-12-18T20:48:54;-0.70;97.80
32107;DHT22;18622;51.998;10.440;2022-12-18T20:51:22;-0.70;97.80
32107;DHT22;18622;51.998;10.440;2022-12-18T20:53:53;-0.70;97.90
32107;DHT22;18622;51.998;10.440;2022-12-18T20:56:22;-0.70;98.00
32107;DHT22;18622;51.998;10.440;2022-12-18T20:58:49;-0.70;98.00
32107;DHT22;18622;51.998;10.440;2022-12-18T21:01:19;-0.70;98.00
32107;DHT22;18622;51.998;10.440;2022-12-18T21:03:47;-0.70;98.00
32107;DHT22;18622;51.998;10.440;2022-12-18T21:06:17;-0.70;98.00
32107;DHT22;18622;51.998;10.440;2022-12-18T21:08:44;-0.70;97.90
32107;DHT22;18622;51.998;10.440;2022-12-18T21:14:09;-0.70;97.80
32107;DHT22;18622;51.998;10.440;2022-12-18T21:16:38;-0.60;97.80
32107;DHT22;18622;51.998;10.440;2022-12-18T21:19:06;-0.60;97.70
32107;DHT22;18622;51.998;10.440;2022-12-18T21:21:34;-0.50;97.60
32107;DHT22;18622;51.998;10.440;2022-12-18T21:24:02;-0.50;97.60
32107;DHT22;18622;51.998;10.440;2022-12-18T21:26:30;-0.50;97.60
32107;DHT22;18622;51.998;10.440;2022-12-18T21:29:00;-0.50;97.80
32107;DHT22;18622;51.998;10.440;2022-12-18T21:31:30;-0.50;97.80
32107;DHT22;18622;51.998;10.440;2022-12-18T21:33:58;-0.50;97.70
32107;DHT22;18622;51.998;10.440;2022-12-18T21:36:26;-0.50;97.60
32107;DHT22;18622;51.998;10.440;2022-12-18T21:38:55;-0.50;97.70
32107;DHT22;18622;51.998;10.440;2022-12-18T21:41:23;-0.60;97.60
32107;DHT22;18622;51.998;10.440;2022-12-18T21:44:11;-0.60;97.70
32107;DHT22;18622;51.998;10.440;2022-12-18T21:46:41;-0.50;97.90
32107;DHT22;18622;51.998;10.440;2022-12-18T21:49:10;-0.50;97.90
32107;DHT22;18622;51.998;10.440;2022-12-18T21:51:40;-0.50;97.80
32107;DHT22;18622;51.998;10.440;2022-12-18T21:54:07;-0.50;97.80
32107;DHT22;18622;51.998;10.440;2022-12-18T21:56:53;-0.50;97.60
32107;DHT22;18622;51.998;10.440;2022-12-18T21:59:23;-0.50;97.70
32107;DHT22;18622;51.998;10.440;2022-12-18T22:01:52;-0.40;97.70
32107;DHT22;18622;51.998;10.440;2022-12-18T22:04:20;-0.40;97.80
32107;DHT22;18622;51.998;10.440;2022-12-18T22:06:49;-0.40;97.90
32107;DHT22;18622;51.998;10.440;2022-12-18T22:09:19;-0.40;97.90
32107;DHT22;18622;51.998;10.440;2022-12-18T22:11:47;-0.40;97.80
32107;DHT22;18622;51.998;10.440;2022-12-18T22:14:18;-0.40;97.90
32107;DHT22;18622;51.998;10.440;2022-12-18T22:16:47;-0.30;98.00
32107;DHT22;18622;51.998;10.440;2022-12-18T22:19:14;-0.40;97.60
32107;DHT22;18622;51.998;10.440;2022-12-18T22:21:44;-0.30;97.70
32107;DHT22;18622;51.998;10.440;2022-12-18T22:24:17;-0.30;97.80
32107;DHT22;18622;51.998;10.440;2022-12-18T22:26:46;-0.30;97.80
32107;DHT22;18622;51.998;10.440;2022-12-18T22:29:17;-0.30;97.90
32107;DHT22;18622;51.998;10.440;2022-12-18T22:32:03;-0.20;97.90
32107;DHT22;18622;51.998;10.440;2022-12-18T22:34:31;-0.30;98.10
32107;DHT22;18622;51.998;10.440;2022-12-18T22:36:58;-0.20;98.10
32107;DHT22;18622;51.998;10.440;2022-12-18T22:39:27;-0.20;98.10
32107;DHT22;18622;51.998;10.440;2022-12-18T22:41:56;-0.20;98.10
32107;DHT22;18622;51.998;10.440;2022-12-18T22:44:25;-0.20;98.00
